Terminal Aerodrome Forecast
Issued by NWS

Home | Current Version | Previous Version | Text Only | Print | Product List | Glossary On
Versions: 1 2 3 4 5 6 7 8 9 10 11 12 13 14
000
FTUS43 KICT 060842 AAA
TAFCNU
TAF AMD
KCNU 060842Z 0609/0706 14013KT P6SM -RA SCT015 OVC050
      TEMPO 0609/0612 3SM +RA
     FM061300 17017G22KT 4SM RA OVC008=

USA.gov is the U.S. government's official web portal to all federal, state and local government web resources and services.